Time;durP1;ratioP1;P1;durP2;ratioP2;P2;SDS_P1;SDS_P2;PMS_P1;PMS_P2;Temp;Humidity;BMP_temperature;BMP_pressure;BME280_temperature;BME280_humidity;BME280_pressure;Samples;Min_cycle;Max_cycle;Signal;HPM_P1;HPM_P2
2021/12/10 00:02:23;;;;;;;46.23;26.43;;;4.20;1.00;;;;;;5048003;28;20454;-58
2021/12/10 00:04:49;;;;;;;41.30;23.30;;;4.20;1.00;;;;;;5050364;28;20223;-57
2021/12/10 00:07:19;;;;;;;53.10;27.93;;;4.20;1.00;;;;;;5047924;28;20998;-57
2021/12/10 00:09:49;;;;;;;49.70;27.67;;;4.20;1.00;;;;;;5046828;28;20185;-58
2021/12/10 00:12:19;;;;;;;48.30;25.70;;;4.20;1.00;;;;;;5047294;28;20452;-58
2021/12/10 00:14:45;;;;;;;44.47;24.40;;;4.30;1.00;;;;;;5047583;28;20769;-58
2021/12/10 00:17:14;;;;;;;47.63;26.80;;;4.20;1.00;;;;;;5049497;28;20536;-58
2021/12/10 00:19:47;;;;;;;46.00;25.90;;;4.30;1.00;;;;;;5050621;28;20823;-58
2021/12/10 00:22:18;;;;;;;50.40;25.83;;;4.30;1.00;;;;;;5048875;28;20439;-59
2021/12/10 00:24:46;;;;;;;53.77;25.77;;;4.30;1.00;;;;;;5050511;28;20457;-58
2021/12/10 00:27:13;;;;;;;43.97;25.43;;;4.40;1.00;;;;;;5046763;28;20832;-57
2021/12/10 00:29:47;;;;;;;46.73;26.40;;;4.40;1.00;;;;;;5054389;28;20433;-57
2021/12/10 00:32:28;;;;;;;46.20;24.83;;;4.40;1.00;;;;;;5048400;28;20446;-61
2021/12/10 00:34:54;;;;;;;39.37;24.83;;;4.40;1.00;;;;;;5051392;28;20553;-58
2021/12/10 00:37:22;;;;;;;44.90;24.40;;;4.40;1.00;;;;;;5052792;28;20530;-59
2021/12/10 00:39:52;;;;;;;44.17;25.40;;;4.30;1.00;;;;;;5054177;28;20534;-59
2021/12/10 00:42:21;;;;;;;47.73;24.70;;;4.30;1.00;;;;;;5052897;28;20453;-58
2021/12/10 00:44:47;;;;;;;41.70;24.73;;;4.30;1.00;;;;;;5056432;28;20446;-57
2021/12/10 00:47:13;;;;;;;44.13;24.77;;;4.30;1.00;;;;;;5051037;28;20466;-59
2021/12/10 00:49:40;;;;;;;43.87;25.10;;;4.30;1.00;;;;;;5055545;28;20567;-59
2021/12/10 00:52:08;;;;;;;47.03;24.63;;;4.30;1.00;;;;;;5053055;28;20449;-57
2021/12/10 00:54:34;;;;;;;45.90;26.00;;;4.20;1.00;;;;;;5054977;28;20978;-59
2021/12/10 00:57:01;;;;;;;48.17;24.07;;;4.20;1.00;;;;;;5052501;28;20453;-57
2021/12/10 00:59:26;;;;;;;41.80;24.80;;;4.20;1.00;;;;;;5051863;28;20485;-58
2021/12/10 01:01:52;;;;;;;44.60;25.13;;;4.20;1.00;;;;;;5049717;28;20481;-59
2021/12/10 01:04:25;;;;;;;39.63;24.67;;;4.10;1.00;;;;;;5052036;28;20219;-59
2021/12/10 01:06:52;;;;;;;42.77;24.13;;;4.20;1.00;;;;;;5052220;28;20470;-59
2021/12/10 01:09:24;;;;;;;48.13;26.20;;;4.10;1.00;;;;;;5050510;28;20786;-57
2021/12/10 01:12:03;;;;;;;45.60;23.60;;;4.20;1.00;;;;;;5051844;28;20431;-56
2021/12/10 01:15:32;;;;;;;42.00;25.17;;;4.10;1.00;;;;;;5051689;28;20447;-57
2021/12/10 01:25:55;;;;;;;43.80;24.13;;;4.20;1.00;;;;;;5052687;28;20484;-58
2021/12/10 01:28:22;;;;;;;39.67;23.60;;;4.10;1.00;;;;;;5054044;28;20470;-59
2021/12/10 01:30:49;;;;;;;40.60;23.33;;;4.10;1.00;;;;;;5053232;28;20463;-59
2021/12/10 01:33:18;;;;;;;35.80;21.57;;;4.10;1.00;;;;;;5052074;28;20445;-59
2021/12/10 01:35:49;;;;;;;36.90;21.30;;;4.20;1.00;;;;;;5047538;28;20242;-57
2021/12/10 01:38:16;;;;;;;38.87;22.87;;;4.20;1.00;;;;;;5051597;28;20967;-58
2021/12/10 01:40:44;;;;;;;33.00;20.43;;;4.30;1.00;;;;;;5050560;28;20446;-58
2021/12/10 01:43:21;;;;;;;33.83;21.40;;;4.20;1.00;;;;;;5052322;28;20785;-58
2021/12/10 01:45:48;;;;;;;33.20;19.63;;;4.20;1.00;;;;;;5050269;28;20774;-57
2021/12/10 01:48:19;;;;;;;36.47;21.27;;;4.20;1.00;;;;;;5051893;28;20431;-57
2021/12/10 01:50:46;;;;;;;34.70;20.80;;;4.30;1.00;;;;;;5051300;28;20583;-57
2021/12/10 01:53:14;;;;;;;34.50;21.53;;;4.30;1.00;;;;;;5049115;28;20478;-58
2021/12/10 01:55:43;;;;;;;34.73;21.20;;;4.30;1.00;;;;;;5053011;28;20435;-57
2021/12/10 01:58:14;;;;;;;33.50;20.10;;;4.30;1.00;;;;;;5048903;28;20530;-57
2021/12/10 02:00:44;;;;;;;35.80;22.43;;;4.30;1.00;;;;;;5053044;28;20541;-57
2021/12/10 02:03:11;;;;;;;34.93;19.93;;;4.20;1.00;;;;;;5050671;28;20432;-58
2021/12/10 02:05:36;;;;;;;28.43;18.37;;;4.20;1.00;;;;;;5049447;28;20559;-58
2021/12/10 02:08:03;;;;;;;30.47;18.03;;;4.20;1.00;;;;;;5051485;28;20525;-57
2021/12/10 02:10:29;;;;;;;31.43;20.73;;;4.20;1.00;;;;;;5050691;28;20184;-57
2021/12/10 02:12:56;;;;;;;32.13;19.20;;;4.20;1.00;;;;;;5051726;28;20441;-58
2021/12/10 02:15:26;;;;;;;32.90;20.10;;;4.10;1.00;;;;;;5047545;28;20443;-58
2021/12/10 02:17:52;;;;;;;32.93;20.13;;;4.10;1.00;;;;;;5050620;28;20966;-57
2021/12/10 02:20:23;;;;;;;34.73;21.40;;;4.20;1.00;;;;;;5051454;28;20536;-56
2021/12/10 02:22:50;;;;;;;30.43;18.20;;;4.20;1.00;;;;;;5055183;28;20446;-58
2021/12/10 02:25:30;;;;;;;30.20;19.50;;;4.20;1.00;;;;;;5057251;28;20442;-57
2021/12/10 02:27:57;;;;;;;28.80;18.90;;;4.10;1.00;;;;;;5049842;28;20493;-58
2021/12/10 02:30:28;;;;;;;26.03;15.63;;;4.20;1.00;;;;;;5046235;28;20560;-58
2021/12/10 02:32:54;;;;;;;27.50;17.20;;;4.20;1.00;;;;;;5050210;28;20451;-58
2021/12/10 02:35:20;;;;;;;26.53;17.67;;;;;;;;;;5049855;28;20492;-59
2021/12/10 02:37:47;;;;;;;31.37;20.17;;;4.10;1.00;;;;;;5049694;28;20195;-58
2021/12/10 02:40:16;;;;;;;30.57;19.20;;;4.10;1.00;;;;;;5059667;28;20446;-57
2021/12/10 02:42:43;;;;;;;32.20;18.70;;;4.10;1.00;;;;;;5058944;28;20457;-58
2021/12/10 02:45:11;;;;;;;29.57;19.13;;;4.10;1.00;;;;;;5050100;28;21017;-58
2021/12/10 02:47:36;;;;;;;28.23;17.20;;;4.10;1.00;;;;;;5048912;28;20509;-57
2021/12/10 02:50:05;;;;;;;25.53;17.10;;;4.10;1.00;;;;;;5047972;28;20471;-56
2021/12/10 02:52:31;;;;;;;28.73;17.50;;;4.10;1.00;;;;;;5047323;28;20276;-58
2021/12/10 02:54:58;;;;;;;29.00;17.80;;;4.00;1.00;;;;;;5050116;28;21860;-57
2021/12/10 02:57:25;;;;;;;26.20;17.17;;;4.00;1.00;;;;;;5065544;28;20274;-58
2021/12/10 02:59:51;;;;;;;33.63;17.93;;;4.10;1.00;;;;;;5051865;28;20455;-58
2021/12/10 03:02:23;;;;;;;27.13;16.60;;;4.10;1.00;;;;;;5045080;28;20517;-57
2021/12/10 03:04:49;;;;;;;31.10;18.13;;;4.10;1.00;;;;;;5049199;28;20657;-57
2021/12/10 03:07:19;;;;;;;35.37;20.80;;;4.10;1.00;;;;;;5049707;28;20473;-58
2021/12/10 03:09:47;;;;;;;29.37;18.80;;;4.10;1.00;;;;;;5048034;28;20693;-59
2021/12/10 03:12:14;;;;;;;29.30;17.10;;;4.10;1.00;;;;;;5049226;28;20592;-58
2021/12/10 03:14:44;;;;;;;32.30;19.23;;;4.00;1.00;;;;;;5050141;28;20447;-57
2021/12/10 03:17:16;;;;;;;33.10;19.37;;;4.00;1.00;;;;;;5046731;28;20508;-57
2021/12/10 03:19:42;;;;;;;30.23;18.33;;;4.10;1.00;;;;;;5049707;28;20442;-58
2021/12/10 03:22:07;;;;;;;26.57;16.33;;;4.10;1.00;;;;;;5046123;28;20864;-59
2021/12/10 03:24:34;;;;;;;28.53;18.10;;;4.10;1.00;;;;;;5049340;28;20627;-59
2021/12/10 03:27:03;;;;;;;27.53;17.40;;;4.00;1.00;;;;;;5048127;28;20520;-58
2021/12/10 03:29:32;;;;;;;25.80;17.50;;;4.00;1.00;;;;;;5049127;28;20991;-59
2021/12/10 03:32:01;;;;;;;29.70;17.27;;;4.00;1.00;;;;;;5046540;28;21253;-57
2021/12/10 03:34:27;;;;;;;28.43;18.60;;;;;;;;;;5046973;28;20452;-57
2021/12/10 03:36:53;;;;;;;28.27;17.27;;;3.90;1.00;;;;;;5049482;28;21006;-59
2021/12/10 03:39:27;;;;;;;31.03;19.00;;;4.00;1.00;;;;;;5047830;28;20503;-57
2021/12/10 03:41:54;;;;;;;30.33;17.70;;;4.00;1.00;;;;;;5049900;28;20421;-58
2021/12/10 03:44:20;;;;;;;28.43;17.40;;;3.90;1.00;;;;;;5045486;28;20458;-58
2021/12/10 03:46:46;;;;;;;27.00;16.07;;;3.90;1.00;;;;;;5049119;28;20473;-57
2021/12/10 03:49:13;;;;;;;28.10;18.73;;;3.90;1.00;;;;;;5045748;28;20450;-58
2021/12/10 03:51:38;;;;;;;29.13;18.27;;;3.90;1.00;;;;;;5047496;28;20424;-59
2021/12/10 03:54:06;;;;;;;26.40;17.57;;;3.90;1.00;;;;;;5050151;28;20436;-59
2021/12/10 03:56:34;;;;;;;25.63;15.90;;;3.80;1.00;;;;;;5048897;28;20541;-59
2021/12/10 03:59:03;;;;;;;29.87;18.47;;;3.80;1.00;;;;;;5046012;28;20968;-58
2021/12/10 04:01:31;;;;;;;29.77;18.10;;;3.80;1.00;;;;;;5047662;28;20445;-59
2021/12/10 04:03:59;;;;;;;26.40;17.40;;;3.90;1.00;;;;;;5052607;28;20454;-56
2021/12/10 04:06:25;;;;;;;26.67;16.87;;;3.80;1.00;;;;;;5053635;28;20442;-58
2021/12/10 04:08:51;;;;;;;21.47;14.37;;;3.70;5.70;;;;;;5053989;28;20419;-58
2021/12/10 04:11:17;;;;;;;25.37;15.73;;;;;;;;;;5055266;28;20903;-57
2021/12/10 04:13:49;;;;;;;30.60;16.20;;;3.70;10.50;;;;;;5052120;28;20319;-57
2021/12/10 04:16:17;;;;;;;23.00;15.53;;;3.70;12.90;;;;;;5055241;28;21296;-57
2021/12/10 04:18:45;;;;;;;23.27;15.20;;;3.60;15.50;;;;;;5052558;28;20446;-59
2021/12/10 04:21:12;;;;;;;22.13;15.90;;;3.60;15.40;;;;;;5053327;28;20451;-58
2021/12/10 04:23:41;;;;;;;20.30;14.40;;;3.60;26.00;;;;;;5053685;28;20455;-58
2021/12/10 04:26:12;;;;;;;19.93;14.00;;;3.60;26.00;;;;;;5052938;28;20483;-57
2021/12/10 04:28:39;;;;;;;21.30;14.10;;;3.70;28.50;;;;;;5055747;28;20524;-57
2021/12/10 04:31:04;;;;;;;19.70;12.83;;;3.70;28.80;;;;;;5031137;28;20471;-57
2021/12/10 04:33:30;;;;;;;23.97;13.97;;;3.70;30.30;;;;;;5055150;28;20447;-58
2021/12/10 04:35:59;;;;;;;21.03;13.63;;;3.70;30.30;;;;;;5053017;28;20214;-58
2021/12/10 04:38:26;;;;;;;20.30;13.63;;;3.70;31.40;;;;;;5055025;28;20190;-57
2021/12/10 04:40:54;;;;;;;19.03;13.03;;;3.80;29.90;;;;;;5051110;28;20462;-58
2021/12/10 04:43:22;;;;;;;18.13;13.20;;;3.80;28.70;;;;;;5053883;28;20438;-58
2021/12/10 04:45:54;;;;;;;15.13;12.13;;;3.80;26.40;;;;;;5050596;28;20444;-57
2021/12/10 04:48:19;;;;;;;19.27;13.37;;;3.90;29.00;;;;;;5053356;28;20451;-58
2021/12/10 04:50:45;;;;;;;19.30;13.07;;;3.90;26.20;;;;;;5051702;28;20945;-58
2021/12/10 04:53:12;;;;;;;20.40;14.10;;;4.00;21.90;;;;;;5054946;28;20236;-59
2021/12/10 04:55:40;;;;;;;18.50;14.30;;;3.90;20.60;;;;;;5055082;28;20246;-57
2021/12/10 04:58:07;;;;;;;20.77;12.33;;;3.90;22.10;;;;;;5051828;28;20487;-57
2021/12/10 05:00:38;;;;;;;16.17;11.20;;;4.00;23.50;;;;;;5051164;28;20916;-59
2021/12/10 05:03:05;;;;;;;15.53;11.50;;;4.00;26.10;;;;;;5051490;28;20439;-58
2021/12/10 05:05:32;;;;;;;17.43;12.03;;;4.00;20.20;;;;;;5052609;28;20879;-57
2021/12/10 05:07:57;;;;;;;21.00;14.70;;;4.10;23.70;;;;;;5052130;28;20813;-58
2021/12/10 05:10:23;;;;;;;16.30;12.30;;;4.10;24.70;;;;;;5052483;28;20177;-62
2021/12/10 05:12:49;;;;;;;19.57;12.97;;;4.10;17.80;;;;;;5055648;28;20181;-61
2021/12/10 05:15:21;;;;;;;16.83;11.70;;;4.10;18.90;;;;;;5051825;28;20182;-62
2021/12/10 05:17:48;;;;;;;19.13;13.53;;;4.20;17.30;;;;;;5065257;28;20190;-60
2021/12/10 05:20:21;;;;;;;19.53;13.33;;;4.20;13.60;;;;;;5062553;28;20529;-62
2021/12/10 05:22:48;;;;;;;19.40;13.00;;;4.20;10.50;;;;;;5053849;28;20424;-63
2021/12/10 05:25:14;;;;;;;16.93;12.00;;;4.10;11.60;;;;;;5053683;28;20451;-57
2021/12/10 05:27:42;;;;;;;16.97;11.70;;;4.00;15.00;;;;;;5052056;28;21012;-58
2021/12/10 05:30:11;;;;;;;20.73;13.10;;;4.00;17.30;;;;;;5051262;28;20450;-59
2021/12/10 05:32:36;;;;;;;18.60;13.53;;;4.00;17.10;;;;;;5051827;28;20452;-60
2021/12/10 05:35:04;;;;;;;17.40;12.07;;;4.00;19.10;;;;;;5051828;28;20465;-57
2021/12/10 05:37:29;;;;;;;20.70;12.70;;;3.90;20.50;;;;;;5054487;28;20191;-58
2021/12/10 05:39:55;;;;;;;15.47;12.57;;;3.90;20.10;;;;;;5051305;28;20514;-59
2021/12/10 05:42:21;;;;;;;16.63;12.10;;;4.00;21.80;;;;;;5053489;28;20198;-59
2021/12/10 05:44:47;;;;;;;14.37;11.67;;;4.00;22.00;;;;;;5055118;28;20181;-57
2021/12/10 05:47:12;;;;;;;19.20;11.13;;;4.00;20.90;;;;;;5051548;28;20207;-60
2021/12/10 05:49:38;;;;;;;16.67;12.77;;;4.10;22.20;;;;;;5051751;28;20661;-59
2021/12/10 05:52:05;;;;;;;21.77;12.67;;;4.10;18.70;;;;;;5059942;28;20230;-60
2021/12/10 05:54:30;;;;;;;19.50;12.93;;;4.20;14.10;;;;;;5049846;28;20173;-58
2021/12/10 05:56:56;;;;;;;13.53;10.87;;;4.20;16.30;;;;;;5050818;28;20537;-58
2021/12/10 05:59:22;;;;;;;18.33;11.20;;;4.30;10.80;;;;;;5051220;28;20199;-60
2021/12/10 06:01:47;;;;;;;18.60;11.73;;;4.30;7.20;;;;;;5051008;28;20279;-59
2021/12/10 06:04:13;;;;;;;16.63;12.10;;;4.30;6.70;;;;;;5050878;28;20187;-59
2021/12/10 06:06:39;;;;;;;14.93;10.87;;;4.20;8.00;;;;;;5051602;28;20207;-60
2021/12/10 06:09:08;;;;;;;15.90;11.43;;;4.20;8.60;;;;;;5058908;28;20656;-57
2021/12/10 06:11:34;;;;;;;15.63;11.17;;;4.20;9.00;;;;;;5053470;28;20218;-58
2021/12/10 06:14:00;;;;;;;17.57;11.40;;;4.30;5.70;;;;;;5051041;28;20586;-59
2021/12/10 06:16:26;;;;;;;17.80;12.17;;;4.30;1.20;;;;;;5050858;28;20655;-59
2021/12/10 06:18:52;;;;;;;14.13;11.27;;;4.30;1.60;;;;;;5055254;28;20187;-59
2021/12/10 06:21:20;;;;;;;16.50;11.50;;;4.30;2.30;;;;;;5050608;28;20195;-60
2021/12/10 06:23:46;;;;;;;16.77;11.30;;;4.20;2.80;;;;;;5051119;28;20486;-61
2021/12/10 06:26:12;;;;;;;19.13;11.20;;;4.20;6.90;;;;;;5050715;28;20452;-60
2021/12/10 06:28:44;;;;;;;14.83;11.33;;;4.30;5.70;;;;;;5052652;28;20463;-59
2021/12/10 06:31:10;;;;;;;16.67;10.37;;;4.30;3.70;;;;;;5049059;28;20447;-59
2021/12/10 06:33:36;;;;;;;19.17;12.00;;;4.30;3.70;;;;;;5050948;28;20532;-61
2021/12/10 06:36:05;;;;;;;16.97;11.50;;;4.30;3.40;;;;;;5051507;28;20593;-60
2021/12/10 06:38:31;;;;;;;17.57;12.00;;;4.30;5.80;;;;;;5050835;28;20245;-61
2021/12/10 06:40:56;;;;;;;13.63;11.00;;;4.30;2.70;;;;;;5050322;28;20446;-58
2021/12/10 06:43:22;;;;;;;17.57;11.70;;;;;;;;;;5049883;28;20170;-58
2021/12/10 06:45:51;;;;;;;14.73;10.03;;;4.40;1.00;;;;;;5050336;28;20346;-57
2021/12/10 06:48:17;;;;;;;14.90;11.33;;;4.40;1.00;;;;;;5050880;28;20474;-58
2021/12/10 06:50:53;;;;;;;17.33;11.47;;;4.40;1.00;;;;;;5050421;28;20939;-58
2021/12/10 06:53:22;;;;;;;20.97;11.80;;;4.40;1.00;;;;;;5050508;28;20663;-58
2021/12/10 06:55:48;;;;;;;15.40;9.93;;;4.30;1.00;;;;;;5048905;28;20513;-57
2021/12/10 06:58:14;;;;;;;14.20;11.40;;;;;;;;;;5050378;28;20439;-58
2021/12/10 07:00:51;;;;;;;16.60;11.77;;;4.20;3.20;;;;;;5049989;28;20511;-59
2021/12/10 07:03:21;;;;;;;14.47;11.17;;;4.20;1.00;;;;;;5049462;28;20533;-58
2021/12/10 07:05:48;;;;;;;12.97;10.80;;;4.20;1.10;;;;;;5050253;28;20435;-59
2021/12/10 07:08:15;;;;;;;16.17;11.43;;;4.20;1.00;;;;;;5050580;28;20527;-58
2021/12/10 07:10:41;;;;;;;15.93;10.80;;;4.20;1.50;;;;;;5050118;28;20449;-60
2021/12/10 07:13:07;;;;;;;16.60;11.53;;;4.20;1.00;;;;;;5048751;28;20948;-60
2021/12/10 07:15:39;;;;;;;17.10;11.37;;;4.20;1.00;;;;;;5050554;28;20585;-59
2021/12/10 07:18:05;;;;;;;15.77;11.50;;;4.30;1.00;;;;;;5048646;28;20504;-58
2021/12/10 07:20:32;;;;;;;14.73;10.53;;;6.50;1.00;;;;;;5053409;28;20442;-58
2021/12/10 07:22:58;;;;;;;17.40;12.07;;;;;;;;;;5057800;28;20439;-57
2021/12/10 07:25:23;;;;;;;17.47;11.43;;;4.50;1.00;;;;;;5050244;28;20449;-58
2021/12/10 07:27:49;;;;;;;16.47;11.43;;;;;;;;;;5050961;28;20490;-60
2021/12/10 07:30:17;;;;;;;14.50;11.03;;;4.50;1.00;;;;;;5069787;28;20644;-60
2021/12/10 07:32:43;;;;;;;18.80;11.37;;;4.50;1.00;;;;;;5055158;28;20452;-58
2021/12/10 07:35:09;;;;;;;16.27;11.83;;;4.50;1.00;;;;;;5048311;28;20425;-59
2021/12/10 07:37:36;;;;;;;14.90;11.77;;;4.50;1.00;;;;;;5049992;28;20802;-59
2021/12/10 07:40:06;;;;;;;15.30;11.23;;;4.60;1.00;;;;;;5047210;28;20636;-59
2021/12/10 07:42:32;;;;;;;17.20;11.43;;;4.60;1.00;;;;;;5044405;28;20455;-57
2021/12/10 07:44:57;;;;;;;14.03;11.10;;;4.60;1.00;;;;;;5047156;28;20440;-57
2021/12/10 07:47:23;;;;;;;18.17;12.40;;;4.70;1.00;;;;;;5049988;28;20211;-57
2021/12/10 07:49:49;;;;;;;18.67;12.97;;;4.60;1.00;;;;;;5058605;28;20234;-57
2021/12/10 07:52:22;;;;;;;16.90;11.50;;;4.70;1.00;;;;;;5050211;28;20438;-58
2021/12/10 07:54:47;;;;;;;16.10;11.80;;;4.70;1.00;;;;;;5050395;28;20177;-59
2021/12/10 07:57:15;;;;;;;14.87;10.60;;;;;;;;;;5050116;28;20769;-58
2021/12/10 07:59:40;;;;;;;16.43;11.80;;;4.70;1.00;;;;;;5049916;28;20641;-57
2021/12/10 08:02:06;;;;;;;17.37;11.87;;;4.70;1.00;;;;;;5049959;28;20508;-56
2021/12/10 08:04:32;;;;;;;19.20;11.67;;;4.70;1.00;;;;;;5049160;28;20192;-57
2021/12/10 08:06:58;;;;;;;17.67;11.70;;;;;;;;;;5049272;28;20212;-61
2021/12/10 08:09:25;;;;;;;16.60;11.60;;;4.70;1.00;;;;;;5051422;28;20188;-57
2021/12/10 08:11:50;;;;;;;19.27;12.20;;;4.70;1.00;;;;;;5065504;28;20451;-58
2021/12/10 08:14:16;;;;;;;18.20;12.07;;;4.80;1.00;;;;;;5059533;28;20441;-59
2021/12/10 08:16:43;;;;;;;20.27;13.53;;;4.80;1.00;;;;;;5070004;28;20188;-58
2021/12/10 08:19:12;;;;;;;19.00;11.47;;;4.80;1.00;;;;;;5068450;28;20442;-57
2021/12/10 08:21:39;;;;;;;16.40;11.53;;;4.80;1.00;;;;;;5069911;28;20480;-59
2021/12/10 08:24:05;;;;;;;17.63;11.93;;;4.80;1.00;;;;;;5070039;28;20985;-59
2021/12/10 08:26:31;;;;;;;20.83;12.30;;;4.80;1.00;;;;;;5069806;28;20495;-58
2021/12/10 08:28:57;;;;;;;21.50;12.57;;;;;;;;;;5069449;28;20503;-58
2021/12/10 08:31:22;;;;;;;17.57;11.63;;;4.70;1.00;;;;;;5058122;28;20405;-61
2021/12/10 08:33:49;;;;;;;20.20;13.97;;;4.90;1.00;;;;;;5049885;28;20511;-57
2021/12/10 08:36:17;;;;;;;18.97;10.80;;;4.90;1.00;;;;;;5049811;28;20188;-58
2021/12/10 08:38:44;;;;;;;20.67;13.37;;;4.90;1.00;;;;;;5047546;28;20481;-59
2021/12/10 08:41:16;;;;;;;17.30;11.70;;;4.80;1.00;;;;;;5049634;28;20944;-59
2021/12/10 08:43:46;;;;;;;18.40;11.40;;;4.80;1.00;;;;;;5049687;28;20510;-59
2021/12/10 08:46:13;;;;;;;20.13;12.80;;;4.80;1.00;;;;;;5062379;28;20493;-58
2021/12/10 08:48:39;;;;;;;18.67;12.63;;;4.80;1.00;;;;;;5051784;28;20441;-59
2021/12/10 08:51:09;;;;;;;21.00;12.00;;;4.80;1.00;;;;;;5068255;28;20414;-58
2021/12/10 08:53:36;;;;;;;18.70;11.27;;;4.90;1.00;;;;;;5073093;28;20414;-58
2021/12/10 08:56:02;;;;;;;20.43;13.03;;;4.90;1.00;;;;;;5073361;28;20448;-58
2021/12/10 08:58:28;;;;;;;18.80;12.17;;;4.90;1.00;;;;;;5073363;28;20426;-57
2021/12/10 09:01:03;;;;;;;21.50;14.20;;;5.00;1.00;;;;;;5073139;28;20433;-58
2021/12/10 09:03:29;;;;;;;15.40;11.03;;;5.00;1.00;;;;;;5060416;28;20461;-59
2021/12/10 09:05:54;;;;;;;18.90;11.63;;;5.10;1.00;;;;;;5052990;28;20431;-58
2021/12/10 09:08:20;;;;;;;17.77;11.93;;;5.10;1.00;;;;;;5051656;28;20291;-58
2021/12/10 09:10:47;;;;;;;19.17;13.67;;;5.20;1.00;;;;;;5052904;28;20182;-59
2021/12/10 09:13:15;;;;;;;23.07;12.80;;;5.20;1.00;;;;;;5052369;28;20435;-59
2021/12/10 09:15:45;;;;;;;18.17;12.37;;;5.30;1.00;;;;;;5052509;28;20500;-58
2021/12/10 09:18:12;;;;;;;19.63;12.10;;;5.30;1.00;;;;;;5052678;28;20417;-59
2021/12/10 09:20:41;;;;;;;20.47;13.97;;;5.40;1.00;;;;;;5051470;28;20438;-57
2021/12/10 09:23:14;;;;;;;17.23;11.90;;;5.40;1.00;;;;;;5052790;28;20445;-58
2021/12/10 09:25:41;;;;;;;21.80;13.10;;;5.40;1.00;;;;;;5052578;28;20846;-58
2021/12/10 09:28:07;;;;;;;18.97;11.80;;;5.50;1.00;;;;;;5052307;28;20508;-60
2021/12/10 09:30:36;;;;;;;17.30;13.20;;;5.60;1.00;;;;;;5052180;28;20431;-59
2021/12/10 09:33:02;;;;;;;20.23;13.37;;;5.60;1.00;;;;;;5052426;28;20429;-59
2021/12/10 09:35:30;;;;;;;23.60;14.50;;;5.60;1.00;;;;;;5052070;28;20442;-58
2021/12/10 09:37:56;;;;;;;25.07;14.90;;;5.60;1.00;;;;;;5051900;28;20447;-59
2021/12/10 09:40:26;;;;;;;26.70;13.33;;;5.60;1.00;;;;;;5052264;28;20443;-57
2021/12/10 09:42:53;;;;;;;22.47;13.97;;;5.80;1.00;;;;;;5051900;28;20936;-58
2021/12/10 09:45:22;;;;;;;31.03;13.00;;;5.80;1.00;;;;;;5051797;28;20458;-59
2021/12/10 09:47:49;;;;;;;21.50;13.60;;;5.90;1.00;;;;;;5033946;28;20479;-59
2021/12/10 09:50:17;;;;;;;28.10;15.97;;;5.90;1.00;;;;;;5052361;28;20474;-58
2021/12/10 09:52:43;;;;;;;20.37;13.70;;;5.90;1.00;;;;;;5052969;28;20453;-58
2021/12/10 09:55:13;;;;;;;21.53;13.63;;;5.70;1.00;;;;;;5052088;28;20569;-59
2021/12/10 09:57:40;;;;;;;25.13;15.17;;;5.70;1.00;;;;;;5051774;28;20468;-58
2021/12/10 10:00:15;;;;;;;19.97;14.37;;;5.70;1.00;;;;;;5051614;28;20470;-58
2021/12/10 10:02:41;;;;;;;20.20;14.30;;;5.90;1.00;;;;;;5051507;28;20779;-59
2021/12/10 10:05:08;;;;;;;25.77;15.53;;;5.80;1.00;;;;;;5051892;28;20861;-60
2021/12/10 10:07:37;;;;;;;22.13;14.70;;;;;;;;;;5050259;28;20454;-58
2021/12/10 10:10:10;;;;;;;22.60;15.03;;;6.00;1.00;;;;;;5050858;28;20943;-58
2021/12/10 10:12:41;;;;;;;23.53;13.40;;;5.70;1.00;;;;;;5051874;28;20427;-58
2021/12/10 10:15:12;;;;;;;24.23;13.20;;;5.70;1.00;;;;;;5050814;28;20521;-60
2021/12/10 10:17:38;;;;;;;26.23;15.70;;;5.80;1.00;;;;;;5051723;28;20423;-60
2021/12/10 10:20:07;;;;;;;22.57;14.70;;;5.80;1.00;;;;;;5051420;28;20434;-59
2021/12/10 10:22:32;;;;;;;23.60;15.17;;;5.90;1.00;;;;;;5051642;28;20493;-58
2021/12/10 10:24:58;;;;;;;23.77;15.70;;;6.10;1.00;;;;;;5050818;28;20442;-60
2021/12/10 10:27:33;;;;;;;26.33;14.80;;;6.20;1.00;;;;;;5050722;28;20223;-57
2021/12/10 10:30:08;;;;;;;23.37;14.97;;;6.20;1.00;;;;;;5049124;28;20445;-59
2021/12/10 10:32:35;;;;;;;25.00;13.47;;;;;;;;;;5051165;28;20403;-58
2021/12/10 10:35:10;;;;;;;20.50;12.97;;;6.30;1.00;;;;;;5049852;28;20719;-58
2021/12/10 10:37:36;;;;;;;23.50;14.77;;;6.40;1.00;;;;;;5051226;28;20517;-59
2021/12/10 10:40:08;;;;;;;21.53;13.43;;;6.50;1.00;;;;;;5050541;28;20542;-59
2021/12/10 10:42:34;;;;;;;19.13;12.73;;;6.50;1.00;;;;;;5051036;28;20255;-58
2021/12/10 10:45:05;;;;;;;20.80;13.07;;;6.50;1.00;;;;;;5051047;28;20466;-58
2021/12/10 10:47:31;;;;;;;25.03;13.17;;;6.60;1.00;;;;;;5050716;28;20200;-58
2021/12/10 10:50:11;;;;;;;18.53;12.07;;;6.70;1.00;;;;;;5051002;28;20504;-60
2021/12/10 10:52:39;;;;;;;17.73;12.50;;;6.70;1.00;;;;;;5051042;28;20177;-59
2021/12/10 10:55:10;;;;;;;17.87;11.70;;;6.90;1.00;;;;;;5050702;28;20443;-58
2021/12/10 10:57:40;;;;;;;13.63;9.90;;;7.00;1.00;;;;;;5051040;28;20442;-60
2021/12/10 11:00:22;;;;;;;18.33;11.13;;;7.00;1.00;;;;;;5050612;28;20421;-60
2021/12/10 11:02:53;;;;;;;18.23;11.73;;;7.00;1.00;;;;;;5050728;28;20878;-59
2021/12/10 11:05:24;;;;;;;16.73;11.97;;;6.90;1.00;;;;;;5050701;28;20891;-59
2021/12/10 11:07:56;;;;;;;16.80;10.77;;;6.90;1.00;;;;;;5049634;28;20470;-59
2021/12/10 11:10:43;;;;;;;18.33;11.57;;;7.00;1.00;;;;;;5049708;28;20442;-58
2021/12/10 11:13:21;;;;;;;14.40;10.13;;;7.00;1.00;;;;;;5049672;28;20438;-58
2021/12/10 11:16:12;;;;;;;17.23;10.70;;;7.00;1.00;;;;;;5050597;28;20447;-57
2021/12/10 11:18:54;;;;;;;16.60;10.60;;;7.00;1.00;;;;;;5050400;28;20435;-58
2021/12/10 11:21:42;;;;;;;16.67;11.43;;;7.00;1.00;;;;;;5050400;28;20939;-60
2021/12/10 11:24:13;;;;;;;16.10;10.60;;;7.00;1.00;;;;;;5050384;28;20497;-58
2021/12/10 11:26:54;;;;;;;14.70;10.77;;;7.10;1.00;;;;;;5048627;28;20458;-59
2021/12/10 11:29:42;;;;;;;16.80;11.10;;;7.20;1.00;;;;;;5049892;28;20463;-59
2021/12/10 11:32:15;;;;;;;16.97;10.37;;;7.30;1.00;;;;;;5057797;28;20783;-60
2021/12/10 11:34:44;;;;;;;17.57;11.47;;;7.30;1.00;;;;;;5070054;28;20434;-58
2021/12/10 11:37:13;;;;;;;14.83;11.40;;;7.20;1.00;;;;;;5070442;28;20465;-58
2021/12/10 11:39:52;;;;;;;17.53;11.33;;;7.40;1.00;;;;;;5070462;28;22017;-58
2021/12/10 11:42:46;;;;;;;16.97;10.97;;;7.50;1.00;;;;;;5068829;28;20524;-60
2021/12/10 11:45:42;;;;;;;17.77;10.83;;;7.50;1.00;;;;;;5070137;28;20453;-59
2021/12/10 11:48:12;;;;;;;17.70;11.60;;;7.50;1.00;;;;;;5070158;28;20488;-58
2021/12/10 11:50:43;;;;;;;17.43;11.03;;;7.50;1.00;;;;;;5063042;28;20551;-58
2021/12/10 11:53:13;;;;;;;23.10;12.30;;;7.40;1.00;;;;;;5049699;28;20540;-59
2021/12/10 11:55:58;;;;;;;19.27;11.60;;;7.50;1.00;;;;;;5049399;28;20439;-58
2021/12/10 11:58:24;;;;;;;16.23;11.40;;;7.50;1.00;;;;;;5050017;28;20474;-58
2021/12/10 12:00:51;;;;;;;17.00;11.37;;;7.50;1.00;;;;;;5049770;28;20431;-58
2021/12/10 12:03:17;;;;;;;19.33;11.60;;;7.50;1.00;;;;;;5048719;28;20435;-58
2021/12/10 12:05:43;;;;;;;19.53;12.17;;;7.40;1.00;;;;;;5049801;28;20948;-58
2021/12/10 12:08:13;;;;;;;18.30;12.83;;;7.30;1.00;;;;;;5050221;28;20465;-58
2021/12/10 12:10:42;;;;;;;20.80;12.60;;;7.30;1.00;;;;;;5049714;28;20766;-58
2021/12/10 12:15:45;;;;;;;20.80;14.13;;;7.10;1.00;;;;;;5050047;28;20462;-58
2021/12/10 12:18:14;;;;;;;22.83;14.30;;;7.00;1.00;;;;;;5049595;28;20455;-59
2021/12/10 12:20:49;;;;;;;21.40;13.17;;;7.00;1.00;;;;;;5058652;28;20409;-58
2021/12/10 12:26:20;;;;;;;19.00;12.30;;;6.90;1.00;;;;;;5073800;28;20448;-59
2021/12/10 12:28:49;;;;;;;19.50;12.20;;;6.80;1.00;;;;;;5073427;28;20473;-58
2021/12/10 12:31:23;;;;;;;21.70;12.37;;;6.80;1.00;;;;;;5073901;28;20437;-59
2021/12/10 12:34:06;;;;;;;22.27;13.33;;;6.90;1.00;;;;;;5073427;28;20525;-61
2021/12/10 12:36:50;;;;;;;23.53;14.17;;;6.80;1.00;;;;;;5070765;28;20445;-60
2021/12/10 12:39:29;;;;;;;22.27;13.80;;;6.90;1.00;;;;;;5053570;28;20431;-58
2021/12/10 12:41:56;;;;;;;18.50;12.03;;;7.10;1.00;;;;;;5053650;28;20818;-59
2021/12/10 12:44:35;;;;;;;22.27;13.90;;;7.00;1.00;;;;;;5052882;28;20991;-58
2021/12/10 12:47:06;;;;;;;18.87;12.23;;;6.80;1.00;;;;;;5052964;28;20601;-59
2021/12/10 12:49:38;;;;;;;19.33;11.63;;;6.80;1.00;;;;;;5053122;28;20443;-59
2021/12/10 12:52:11;;;;;;;17.33;11.73;;;6.70;1.00;;;;;;5053222;28;20427;-60
2021/12/10 12:54:43;;;;;;;18.20;11.70;;;6.50;1.00;;;;;;5053261;28;20428;-59
2021/12/10 12:57:10;;;;;;;17.67;12.30;;;6.40;1.00;;;;;;5053182;28;20446;-59
2021/12/10 12:59:37;;;;;;;18.73;12.37;;;6.50;1.00;;;;;;5053348;28;20431;-59
2021/12/10 13:02:07;;;;;;;18.53;10.47;;;6.50;1.00;;;;;;5053026;28;20542;-58
2021/12/10 13:04:38;;;;;;;21.33;12.23;;;6.50;1.00;;;;;;5052950;28;20447;-60
2021/12/10 13:07:24;;;;;;;17.50;10.87;;;6.50;1.00;;;;;;5062947;28;20489;-60
2021/12/10 13:09:55;;;;;;;17.07;11.37;;;6.50;1.00;;;;;;5056226;28;20466;-59
2021/12/10 13:12:36;;;;;;;16.30;11.97;;;6.40;1.00;;;;;;5052362;28;20529;-59